createdAt,value
2022-10-08T00:03:09.908Z,99072.6
2022-10-08T00:08:45.913Z,99072.9
2022-10-08T00:14:25.629Z,99066.2
2022-10-08T00:20:01.934Z,99067.7
2022-10-08T00:25:45.540Z,99066.6
2022-10-08T00:31:21.933Z,99066.3
2022-10-08T00:36:57.464Z,99061.2
2022-10-08T00:42:35.023Z,99060.7
2022-10-08T00:48:12.879Z,99067.5
2022-10-08T00:54:01.961Z,99072.5
2022-10-08T00:59:39.979Z,99076.1
2022-10-08T01:05:16.000Z,99069.5
2022-10-08T01:11:12.663Z,99069
2022-10-08T01:16:45.877Z,99069.2
2022-10-08T01:22:22.004Z,99067.3
2022-10-08T01:27:57.112Z,99071.5
2022-10-08T01:33:32.982Z,99072.8
2022-10-08T01:39:31.312Z,99072
2022-10-08T01:45:06.757Z,99068.5
2022-10-08T01:50:43.945Z,99067.9
2022-10-08T01:56:21.470Z,99066.4
2022-10-08T02:02:29.331Z,99058.9
2022-10-08T02:08:21.399Z,99051.3
2022-10-08T02:14:26.953Z,99050.5
2022-10-08T02:19:59.879Z,99050.3
2022-10-08T02:25:34.848Z,99051.3
2022-10-08T02:31:38.529Z,99048
2022-10-08T02:37:13.812Z,99048.5
2022-10-08T02:42:52.469Z,99044.5
2022-10-08T02:48:27.183Z,99043.7
2022-10-08T02:54:02.133Z,99044.8
2022-10-08T02:59:36.931Z,99047.1
2022-10-08T03:05:20.668Z,99052.5
2022-10-08T03:11:17.371Z,99053.7
2022-10-08T03:16:54.166Z,99052
2022-10-08T03:22:55.148Z,99055.5
2022-10-08T03:28:30.319Z,99056.4
2022-10-08T03:34:23.743Z,99058.5
2022-10-08T03:40:13.482Z,99059.5
2022-10-08T03:45:49.868Z,99057.4
2022-10-08T03:51:25.562Z,99056.7
2022-10-08T03:57:00.501Z,99057
2022-10-08T04:02:44.019Z,99062.8
2022-10-08T04:08:21.217Z,99062.8
2022-10-08T04:14:17.851Z,99068.5
2022-10-08T04:19:51.309Z,99073.5
2022-10-08T04:25:39.126Z,99077
2022-10-08T04:31:15.034Z,99071.9
2022-10-08T04:36:53.403Z,99072.2
2022-10-08T04:43:04.135Z,99074.7
2022-10-08T04:48:47.012Z,99076.8
2022-10-08T04:54:22.127Z,99081.6
2022-10-08T05:00:19.854Z,99085
2022-10-08T05:06:16.024Z,99086.7
2022-10-08T05:11:52.320Z,99091.7
2022-10-08T05:17:29.446Z,99093.7
2022-10-08T05:23:06.701Z,99093.5
2022-10-08T05:28:42.130Z,99094.7
2022-10-08T05:34:17.846Z,99095.1
2022-10-08T05:39:59.869Z,99097.7
2022-10-08T05:45:44.352Z,99102.3
2022-10-08T05:51:27.200Z,99098.2
2022-10-08T05:57:09.085Z,99096.4
2022-10-08T06:05:29.898Z,99098.4
2022-10-08T06:11:10.493Z,99099.4
2022-10-08T06:16:47.659Z,99094.6
2022-10-08T06:22:22.491Z,99096.1
2022-10-08T06:27:57.741Z,99103.3
2022-10-08T06:33:32.587Z,99105.5
2022-10-08T06:39:08.118Z,99104.6
2022-10-08T06:44:44.452Z,99112.4
2022-10-08T06:50:19.600Z,99116.4
2022-10-08T06:55:54.664Z,99113.5
2022-10-08T07:01:34.889Z,99117.7
2022-10-08T07:07:12.299Z,99117.6
2022-10-08T07:12:48.484Z,99124.1
2022-10-08T07:18:26.879Z,99126.5
2022-10-08T07:24:01.777Z,99136
2022-10-08T07:29:37.193Z,99140
2022-10-08T07:35:12.254Z,99137
2022-10-08T07:40:49.275Z,99134.8
2022-10-08T07:46:24.599Z,99137.6
2022-10-08T07:51:59.403Z,99143.3
2022-10-08T07:57:35.352Z,99154
2022-10-08T08:03:10.293Z,99152.3
2022-10-08T08:08:45.320Z,99161
2022-10-08T08:14:20.255Z,99162.1
2022-10-08T08:19:55.253Z,99170.6
2022-10-08T08:25:30.238Z,99174
2022-10-08T08:31:05.104Z,99171.6
2022-10-08T08:36:40.091Z,99170.2
2022-10-08T08:42:15.153Z,99171.8
2022-10-08T08:47:49.907Z,99175.1
2022-10-08T08:53:24.931Z,99182.6
2022-10-08T08:59:00.947Z,99186.5
2022-10-08T09:04:35.913Z,99189.3
2022-10-08T09:10:13.229Z,99193.9
2022-10-08T09:15:48.243Z,99191.5
2022-10-08T09:21:23.820Z,99191.1
2022-10-08T09:26:59.693Z,99190.1
2022-10-08T09:32:34.934Z,99193
2022-10-08T09:38:09.737Z,99193.7
2022-10-08T09:43:45.016Z,99196.9
2022-10-08T09:49:19.609Z,99199.4
2022-10-08T09:54:54.783Z,99199.6
2022-10-08T10:00:29.894Z,99195.4
2022-10-08T10:06:04.976Z,99191
2022-10-08T10:11:39.741Z,99183.7
2022-10-08T10:17:14.734Z,99181.9
2022-10-08T10:22:51.613Z,99178.9
2022-10-08T10:28:26.801Z,99176.5
2022-10-08T10:34:02.298Z,99165.5
2022-10-08T10:39:37.562Z,99161.2
2022-10-08T10:45:13.253Z,99164.4
2022-10-08T10:50:48.471Z,99156.1
2022-10-08T10:56:23.698Z,99153.1
2022-10-08T11:01:59.654Z,99146.3
2022-10-08T11:07:35.425Z,99151.2
2022-10-08T11:13:10.598Z,99157.8
2022-10-08T11:18:57.836Z,99153.9
2022-10-08T11:24:32.687Z,99151.9
2022-10-08T11:30:08.003Z,99146.5
2022-10-08T11:35:42.877Z,99142.8
2022-10-08T11:41:18.339Z,99141.4
2022-10-08T11:47:01.088Z,99135.3
2022-10-08T11:52:35.959Z,99132.5
2022-10-08T11:58:10.796Z,99129.2
2022-10-08T12:03:47.577Z,99126
2022-10-08T12:09:24.119Z,99119.7
2022-10-08T12:14:59.619Z,99114
2022-10-08T12:20:34.752Z,99106.5
2022-10-08T12:26:10.621Z,99098.6
2022-10-08T12:31:50.755Z,99091.4
2022-10-08T12:37:26.146Z,99077.1
2022-10-08T12:43:01.119Z,99074
2022-10-08T12:48:37.457Z,99064
2022-10-08T12:54:13.462Z,99059.4
2022-10-08T12:59:49.490Z,99054.8
2022-10-08T13:05:24.506Z,99051
2022-10-08T13:11:21.255Z,99039.8
2022-10-08T13:16:54.025Z,99035.2
2022-10-08T13:22:30.082Z,99030.5
2022-10-08T13:28:05.516Z,99028
2022-10-08T13:33:40.559Z,99022.2
2022-10-08T13:39:15.501Z,99016.9
2022-10-08T13:44:50.415Z,99001
2022-10-08T13:50:25.428Z,98995.8
2022-10-08T13:56:00.514Z,98989.4
2022-10-08T14:01:36.017Z,98983.2
2022-10-08T14:07:12.016Z,98978.4
2022-10-08T14:12:48.378Z,98972.7
2022-10-08T14:18:23.223Z,98968.1
2022-10-08T14:23:58.060Z,98959.6
2022-10-08T14:29:33.125Z,98961.2
2022-10-08T14:35:08.338Z,98953.9
2022-10-08T14:40:43.225Z,98954.6
2022-10-08T14:46:18.761Z,98950.7
2022-10-08T14:51:53.796Z,98939.4
2022-10-08T14:57:28.416Z,98940
2022-10-08T15:03:03.280Z,98934.6
2022-10-08T15:08:38.158Z,98935.3
2022-10-08T15:14:13.019Z,98937.1
2022-10-08T15:19:48.204Z,98932.3
2022-10-08T15:25:23.086Z,98925.8
2022-10-08T15:30:57.895Z,98922
2022-10-08T15:36:32.984Z,98918
2022-10-08T15:42:07.744Z,98913
2022-10-08T15:47:42.679Z,98914.7
2022-10-08T15:53:17.468Z,98912.1
2022-10-08T15:58:52.834Z,98911.2
2022-10-08T16:04:27.612Z,98909.6
2022-10-08T16:10:02.894Z,98909.9
2022-10-08T16:15:37.473Z,98907.2
2022-10-08T16:21:12.355Z,98907.3
2022-10-08T16:26:47.714Z,98905.6
2022-10-08T16:32:22.415Z,98910.7
2022-10-08T16:37:57.387Z,98904.5
2022-10-08T16:43:32.505Z,98914.1
2022-10-08T16:49:08.358Z,98918.3
2022-10-08T16:54:44.208Z,98925.7
2022-10-08T17:00:19.058Z,98929.4
2022-10-08T17:05:54.048Z,98926.9
2022-10-08T17:11:51.087Z,98923.8
2022-10-08T17:17:24.081Z,98922.9
2022-10-08T17:22:59.184Z,98922.2
2022-10-08T17:28:34.981Z,98922.7
2022-10-08T17:34:10.688Z,98933.6
2022-10-08T17:39:46.675Z,98931.5
2022-10-08T17:45:21.477Z,98939.1
2022-10-08T17:50:56.338Z,98943.9
2022-10-08T17:56:31.229Z,98952.8
2022-10-08T18:02:08.638Z,98954.3
2022-10-08T18:07:46.067Z,98957.9
2022-10-08T18:13:43.114Z,98962.3
2022-10-08T18:19:16.090Z,98960.8
2022-10-08T18:24:51.265Z,98959.9
2022-10-08T18:30:26.414Z,98959.1
2022-10-08T18:36:09.203Z,98960.1
2022-10-08T18:41:44.247Z,98962.3
2022-10-08T18:47:19.341Z,98961.7
2022-10-08T18:52:55.120Z,98964.2
2022-10-08T18:58:30.259Z,98962.4
2022-10-08T19:04:05.134Z,98963.4
2022-10-08T19:09:40.137Z,98964.1
2022-10-08T19:15:16.369Z,98966
2022-10-08T19:20:55.270Z,98960.1
2022-10-08T19:26:35.247Z,98962.6
2022-10-08T19:32:11.950Z,98965.8
2022-10-08T19:37:47.968Z,98966.3
2022-10-08T19:43:22.966Z,98964
2022-10-08T19:48:58.336Z,98965.1
2022-10-08T19:54:33.317Z,98958.5
2022-10-08T20:00:08.362Z,98959.6
2022-10-08T20:05:44.025Z,98956.9
2022-10-08T20:11:40.868Z,98958.5
2022-10-08T20:17:14.392Z,98956.7
2022-10-08T20:22:52.070Z,98954.9
2022-10-08T20:28:27.601Z,98953.8
2022-10-08T20:34:05.853Z,98955.2
2022-10-08T20:39:40.821Z,98954.4
2022-10-08T20:45:18.560Z,98957.4
2022-10-08T20:50:54.275Z,98957.5
2022-10-08T20:56:40.729Z,98956.2
2022-10-08T21:02:20.614Z,98958
2022-10-08T21:07:55.886Z,98950.7
2022-10-08T21:13:52.721Z,98949
2022-10-08T21:19:25.284Z,98943.1
2022-10-08T21:25:01.169Z,98938.4
2022-10-08T21:30:36.106Z,98934.3
2022-10-08T21:36:11.111Z,98932
2022-10-08T21:41:47.587Z,98929.7
2022-10-08T21:47:22.636Z,98931.1
2022-10-08T21:52:57.589Z,98928.1
2022-10-08T21:58:32.449Z,98920.9
2022-10-08T22:04:07.395Z,98917.4
2022-10-08T22:09:42.219Z,98916
2022-10-08T22:15:18.244Z,98908.3
2022-10-08T22:21:13.985Z,98904.1
2022-10-08T22:26:50.087Z,98897.7
2022-10-08T22:32:27.587Z,98884.3
2022-10-08T22:38:08.292Z,98876.5
2022-10-08T22:43:45.057Z,98878.8
2022-10-08T22:49:20.195Z,98868.5
2022-10-08T22:55:00.071Z,98867
2022-10-08T23:00:37.917Z,98860.3
2022-10-08T23:06:12.714Z,98851.9
2022-10-08T23:12:09.490Z,98843.3
2022-10-08T23:17:41.978Z,98834.5
2022-10-08T23:23:18.025Z,98825
2022-10-08T23:28:59.009Z,98818.2
2022-10-08T23:34:33.998Z,98809.5
2022-10-08T23:40:08.754Z,98798.5
2022-10-08T23:45:43.787Z,98789.5
2022-10-08T23:51:19.820Z,98781.5
2022-10-08T23:56:54.293Z,98769.6
